sensor_id;sensor_type;location;lat;lon;timestamp;P1;durP1;ratioP1;P2;durP2;ratioP2
7375;SDS011;3728;42.266;24.944;2024-01-10T00:00:47;18.83;;;11.77;;
7375;SDS011;3728;42.266;24.944;2024-01-10T00:03:14;15.63;;;9.90;;
7375;SDS011;3728;42.266;24.944;2024-01-10T00:05:41;16.83;;;10.93;;
7375;SDS011;3728;42.266;24.944;2024-01-10T00:08:08;14.77;;;9.67;;
7375;SDS011;3728;42.266;24.944;2024-01-10T00:10:38;16.40;;;10.73;;
7375;SDS011;3728;42.266;24.944;2024-01-10T00:13:05;18.77;;;10.27;;
7375;SDS011;3728;42.266;24.944;2024-01-10T00:15:32;15.00;;;9.83;;
7375;SDS011;3728;42.266;24.944;2024-01-10T00:17:59;17.20;;;10.20;;
7375;SDS011;3728;42.266;24.944;2024-01-10T00:20:26;14.10;;;9.90;;
7375;SDS011;3728;42.266;24.944;2024-01-10T00:22:53;15.60;;;10.43;;
7375;SDS011;3728;42.266;24.944;2024-01-10T00:25:21;14.67;;;10.97;;
7375;SDS011;3728;42.266;24.944;2024-01-10T00:27:48;14.73;;;10.07;;
7375;SDS011;3728;42.266;24.944;2024-01-10T00:30:14;15.47;;;9.97;;
7375;SDS011;3728;42.266;24.944;2024-01-10T00:32:42;19.07;;;10.50;;
7375;SDS011;3728;42.266;24.944;2024-01-10T00:35:09;18.17;;;12.17;;
7375;SDS011;3728;42.266;24.944;2024-01-10T00:37:37;18.60;;;11.50;;
7375;SDS011;3728;42.266;24.944;2024-01-10T00:40:04;21.83;;;12.57;;
7375;SDS011;3728;42.266;24.944;2024-01-10T00:42:34;19.00;;;12.03;;
7375;SDS011;3728;42.266;24.944;2024-01-10T00:45:01;17.67;;;11.07;;
7375;SDS011;3728;42.266;24.944;2024-01-10T00:47:28;17.83;;;11.90;;
7375;SDS011;3728;42.266;24.944;2024-01-10T00:49:55;18.20;;;11.77;;
7375;SDS011;3728;42.266;24.944;2024-01-10T00:52:23;13.37;;;9.77;;
7375;SDS011;3728;42.266;24.944;2024-01-10T00:54:50;18.27;;;11.73;;
7375;SDS011;3728;42.266;24.944;2024-01-10T00:57:17;19.57;;;12.10;;
7375;SDS011;3728;42.266;24.944;2024-01-10T00:59:44;16.00;;;10.80;;
7375;SDS011;3728;42.266;24.944;2024-01-10T01:02:10;19.30;;;11.20;;
7375;SDS011;3728;42.266;24.944;2024-01-10T01:04:38;21.23;;;13.20;;
7375;SDS011;3728;42.266;24.944;2024-01-10T01:07:05;17.60;;;11.63;;
7375;SDS011;3728;42.266;24.944;2024-01-10T01:09:33;18.10;;;12.80;;
7375;SDS011;3728;42.266;24.944;2024-01-10T01:12:00;17.00;;;11.47;;
7375;SDS011;3728;42.266;24.944;2024-01-10T01:14:27;18.63;;;13.37;;
7375;SDS011;3728;42.266;24.944;2024-01-10T01:16:54;25.23;;;13.57;;
7375;SDS011;3728;42.266;24.944;2024-01-10T01:19:21;18.77;;;12.07;;
7375;SDS011;3728;42.266;24.944;2024-01-10T01:21:48;21.70;;;11.30;;
7375;SDS011;3728;42.266;24.944;2024-01-10T01:24:15;22.50;;;11.80;;
7375;SDS011;3728;42.266;24.944;2024-01-10T01:26:42;19.43;;;11.87;;
7375;SDS011;3728;42.266;24.944;2024-01-10T01:29:10;20.90;;;12.13;;
7375;SDS011;3728;42.266;24.944;2024-01-10T01:31:37;15.47;;;10.43;;
7375;SDS011;3728;42.266;24.944;2024-01-10T01:34:05;16.27;;;10.97;;
7375;SDS011;3728;42.266;24.944;2024-01-10T01:36:32;14.53;;;10.33;;
7375;SDS011;3728;42.266;24.944;2024-01-10T01:38:59;17.33;;;11.50;;
7375;SDS011;3728;42.266;24.944;2024-01-10T01:41:26;17.70;;;11.30;;
7375;SDS011;3728;42.266;24.944;2024-01-10T01:43:53;17.30;;;11.20;;
7375;SDS011;3728;42.266;24.944;2024-01-10T01:46:20;22.07;;;11.43;;
7375;SDS011;3728;42.266;24.944;2024-01-10T01:48:48;16.03;;;11.80;;
7375;SDS011;3728;42.266;24.944;2024-01-10T01:51:17;17.27;;;12.07;;
7375;SDS011;3728;42.266;24.944;2024-01-10T01:53:47;16.27;;;10.20;;
7375;SDS011;3728;42.266;24.944;2024-01-10T01:56:15;17.43;;;11.20;;
7375;SDS011;3728;42.266;24.944;2024-01-10T01:58:43;16.57;;;10.93;;
7375;SDS011;3728;42.266;24.944;2024-01-10T02:01:12;16.10;;;11.37;;
7375;SDS011;3728;42.266;24.944;2024-01-10T02:03:39;16.30;;;10.83;;
7375;SDS011;3728;42.266;24.944;2024-01-10T02:06:06;14.97;;;10.40;;
7375;SDS011;3728;42.266;24.944;2024-01-10T02:08:34;14.80;;;10.97;;
7375;SDS011;3728;42.266;24.944;2024-01-10T02:11:02;13.83;;;10.37;;
7375;SDS011;3728;42.266;24.944;2024-01-10T02:13:30;16.50;;;11.13;;
7375;SDS011;3728;42.266;24.944;2024-01-10T02:15:59;19.23;;;10.47;;
7375;SDS011;3728;42.266;24.944;2024-01-10T02:18:27;13.13;;;9.80;;
7375;SDS011;3728;42.266;24.944;2024-01-10T02:20:54;15.93;;;10.43;;
7375;SDS011;3728;42.266;24.944;2024-01-10T02:23:21;17.40;;;10.83;;
7375;SDS011;3728;42.266;24.944;2024-01-10T02:25:48;16.37;;;10.30;;
7375;SDS011;3728;42.266;24.944;2024-01-10T02:28:15;14.90;;;9.83;;
7375;SDS011;3728;42.266;24.944;2024-01-10T02:30:42;13.17;;;9.00;;
7375;SDS011;3728;42.266;24.944;2024-01-10T02:33:10;12.60;;;8.53;;
7375;SDS011;3728;42.266;24.944;2024-01-10T02:35:37;13.03;;;9.10;;
7375;SDS011;3728;42.266;24.944;2024-01-10T02:38:04;12.60;;;7.57;;
7375;SDS011;3728;42.266;24.944;2024-01-10T02:40:31;12.33;;;8.00;;
7375;SDS011;3728;42.266;24.944;2024-01-10T02:42:58;10.97;;;7.40;;
7375;SDS011;3728;42.266;24.944;2024-01-10T02:45:25;12.30;;;9.70;;
7375;SDS011;3728;42.266;24.944;2024-01-10T02:47:52;13.37;;;8.97;;
7375;SDS011;3728;42.266;24.944;2024-01-10T02:50:19;13.37;;;8.10;;
7375;SDS011;3728;42.266;24.944;2024-01-10T02:52:46;14.40;;;9.10;;
7375;SDS011;3728;42.266;24.944;2024-01-10T02:55:13;12.87;;;7.77;;
7375;SDS011;3728;42.266;24.944;2024-01-10T02:57:40;10.33;;;7.60;;
7375;SDS011;3728;42.266;24.944;2024-01-10T03:00:07;17.77;;;10.90;;
7375;SDS011;3728;42.266;24.944;2024-01-10T03:02:35;16.27;;;9.80;;
7375;SDS011;3728;42.266;24.944;2024-01-10T03:05:02;10.20;;;6.30;;
7375;SDS011;3728;42.266;24.944;2024-01-10T03:07:29;8.37;;;6.03;;
7375;SDS011;3728;42.266;24.944;2024-01-10T03:09:56;7.30;;;4.47;;
7375;SDS011;3728;42.266;24.944;2024-01-10T03:12:23;6.70;;;5.23;;
7375;SDS011;3728;42.266;24.944;2024-01-10T03:14:50;7.67;;;5.93;;
7375;SDS011;3728;42.266;24.944;2024-01-10T03:17:17;14.47;;;9.23;;
7375;SDS011;3728;42.266;24.944;2024-01-10T03:19:44;10.63;;;6.77;;
7375;SDS011;3728;42.266;24.944;2024-01-10T03:22:11;6.43;;;4.20;;
7375;SDS011;3728;42.266;24.944;2024-01-10T03:24:38;5.87;;;3.87;;
7375;SDS011;3728;42.266;24.944;2024-01-10T03:27:05;6.17;;;3.63;;
7375;SDS011;3728;42.266;24.944;2024-01-10T03:29:33;5.37;;;3.37;;
7375;SDS011;3728;42.266;24.944;2024-01-10T03:32:01;4.83;;;3.20;;
7375;SDS011;3728;42.266;24.944;2024-01-10T03:34:28;4.03;;;3.47;;
7375;SDS011;3728;42.266;24.944;2024-01-10T03:36:55;3.27;;;2.60;;
7375;SDS011;3728;42.266;24.944;2024-01-10T03:39:22;6.47;;;5.80;;
7375;SDS011;3728;42.266;24.944;2024-01-10T03:41:49;8.23;;;5.43;;
7375;SDS011;3728;42.266;24.944;2024-01-10T03:44:16;7.47;;;4.77;;
7375;SDS011;3728;42.266;24.944;2024-01-10T03:46:43;13.70;;;5.67;;
7375;SDS011;3728;42.266;24.944;2024-01-10T03:49:12;14.80;;;6.00;;
7375;SDS011;3728;42.266;24.944;2024-01-10T03:51:39;11.30;;;5.90;;
7375;SDS011;3728;42.266;24.944;2024-01-10T03:54:07;14.57;;;5.73;;
7375;SDS011;3728;42.266;24.944;2024-01-10T03:56:34;14.23;;;7.57;;
7375;SDS011;3728;42.266;24.944;2024-01-10T03:59:01;11.03;;;7.30;;
7375;SDS011;3728;42.266;24.944;2024-01-10T04:01:28;12.20;;;7.30;;
7375;SDS011;3728;42.266;24.944;2024-01-10T04:03:55;13.93;;;7.57;;
7375;SDS011;3728;42.266;24.944;2024-01-10T04:06:22;11.13;;;6.90;;
7375;SDS011;3728;42.266;24.944;2024-01-10T04:08:49;10.07;;;6.90;;
7375;SDS011;3728;42.266;24.944;2024-01-10T04:11:16;8.03;;;5.30;;
7375;SDS011;3728;42.266;24.944;2024-01-10T04:13:44;9.03;;;4.70;;
7375;SDS011;3728;42.266;24.944;2024-01-10T04:16:11;6.93;;;4.20;;
7375;SDS011;3728;42.266;24.944;2024-01-10T04:18:38;8.50;;;5.40;;
7375;SDS011;3728;42.266;24.944;2024-01-10T04:21:05;9.07;;;6.23;;
7375;SDS011;3728;42.266;24.944;2024-01-10T04:23:32;7.90;;;5.90;;
7375;SDS011;3728;42.266;24.944;2024-01-10T04:26:01;12.87;;;9.20;;
7375;SDS011;3728;42.266;24.944;2024-01-10T04:28:29;16.00;;;9.70;;
7375;SDS011;3728;42.266;24.944;2024-01-10T04:30:56;13.30;;;7.97;;
7375;SDS011;3728;42.266;24.944;2024-01-10T04:33:24;14.13;;;8.50;;
7375;SDS011;3728;42.266;24.944;2024-01-10T04:35:51;10.97;;;7.00;;
7375;SDS011;3728;42.266;24.944;2024-01-10T04:38:18;12.93;;;6.93;;
7375;SDS011;3728;42.266;24.944;2024-01-10T04:40:45;27.63;;;13.40;;
7375;SDS011;3728;42.266;24.944;2024-01-10T04:43:12;20.00;;;10.83;;
7375;SDS011;3728;42.266;24.944;2024-01-10T04:45:39;24.13;;;13.93;;
7375;SDS011;3728;42.266;24.944;2024-01-10T04:48:06;23.67;;;13.33;;
7375;SDS011;3728;42.266;24.944;2024-01-10T04:50:34;17.50;;;9.37;;
7375;SDS011;3728;42.266;24.944;2024-01-10T04:53:01;14.30;;;8.43;;
7375;SDS011;3728;42.266;24.944;2024-01-10T04:55:28;12.87;;;7.27;;
7375;SDS011;3728;42.266;24.944;2024-01-10T04:57:55;16.63;;;7.87;;
7375;SDS011;3728;42.266;24.944;2024-01-10T05:00:22;17.73;;;8.37;;
7375;SDS011;3728;42.266;24.944;2024-01-10T05:02:49;16.90;;;8.47;;
7375;SDS011;3728;42.266;24.944;2024-01-10T05:05:20;22.83;;;12.23;;
7375;SDS011;3728;42.266;24.944;2024-01-10T05:07:50;31.67;;;15.17;;
7375;SDS011;3728;42.266;24.944;2024-01-10T05:10:18;35.63;;;15.83;;
7375;SDS011;3728;42.266;24.944;2024-01-10T05:12:45;68.37;;;26.93;;
7375;SDS011;3728;42.266;24.944;2024-01-10T05:15:12;28.77;;;13.07;;
7375;SDS011;3728;42.266;24.944;2024-01-10T05:17:41;25.67;;;11.10;;
7375;SDS011;3728;42.266;24.944;2024-01-10T05:20:09;16.07;;;6.87;;
7375;SDS011;3728;42.266;24.944;2024-01-10T05:22:36;5.80;;;3.90;;
7375;SDS011;3728;42.266;24.944;2024-01-10T05:25:03;9.13;;;5.03;;
7375;SDS011;3728;42.266;24.944;2024-01-10T05:27:31;12.03;;;5.70;;
7375;SDS011;3728;42.266;24.944;2024-01-10T05:29:58;19.67;;;9.77;;
7375;SDS011;3728;42.266;24.944;2024-01-10T05:32:26;20.03;;;10.67;;
7375;SDS011;3728;42.266;24.944;2024-01-10T05:34:54;15.73;;;8.57;;
7375;SDS011;3728;42.266;24.944;2024-01-10T05:37:21;24.93;;;11.33;;
7375;SDS011;3728;42.266;24.944;2024-01-10T05:39:49;31.20;;;12.03;;
7375;SDS011;3728;42.266;24.944;2024-01-10T05:42:16;35.13;;;18.37;;
7375;SDS011;3728;42.266;24.944;2024-01-10T05:44:43;38.20;;;19.13;;
7375;SDS011;3728;42.266;24.944;2024-01-10T05:47:10;30.70;;;15.60;;
7375;SDS011;3728;42.266;24.944;2024-01-10T05:49:37;27.10;;;14.77;;
7375;SDS011;3728;42.266;24.944;2024-01-10T05:52:04;24.40;;;12.07;;
7375;SDS011;3728;42.266;24.944;2024-01-10T05:54:31;27.00;;;11.30;;
7375;SDS011;3728;42.266;24.944;2024-01-10T05:56:58;18.87;;;10.77;;
7375;SDS011;3728;42.266;24.944;2024-01-10T05:59:27;31.90;;;12.57;;
7375;SDS011;3728;42.266;24.944;2024-01-10T06:01:55;45.07;;;19.03;;
7375;SDS011;3728;42.266;24.944;2024-01-10T06:04:23;27.23;;;12.40;;
7375;SDS011;3728;42.266;24.944;2024-01-10T06:06:50;19.80;;;11.87;;
7375;SDS011;3728;42.266;24.944;2024-01-10T06:09:17;22.80;;;12.43;;
7375;SDS011;3728;42.266;24.944;2024-01-10T06:11:48;21.43;;;11.83;;
7375;SDS011;3728;42.266;24.944;2024-01-10T06:14:15;21.67;;;12.50;;
7375;SDS011;3728;42.266;24.944;2024-01-10T06:16:43;30.10;;;13.67;;
7375;SDS011;3728;42.266;24.944;2024-01-10T06:19:12;30.30;;;17.90;;
7375;SDS011;3728;42.266;24.944;2024-01-10T06:21:39;32.33;;;15.60;;
7375;SDS011;3728;42.266;24.944;2024-01-10T06:24:06;28.57;;;13.60;;
7375;SDS011;3728;42.266;24.944;2024-01-10T06:26:34;22.23;;;15.17;;
7375;SDS011;3728;42.266;24.944;2024-01-10T06:29:01;21.77;;;14.90;;
7375;SDS011;3728;42.266;24.944;2024-01-10T06:31:28;29.17;;;14.57;;
7375;SDS011;3728;42.266;24.944;2024-01-10T06:33:55;48.80;;;24.33;;
7375;SDS011;3728;42.266;24.944;2024-01-10T06:36:22;61.50;;;32.00;;
7375;SDS011;3728;42.266;24.944;2024-01-10T06:38:49;51.20;;;28.07;;
7375;SDS011;3728;42.266;24.944;2024-01-10T06:41:16;59.80;;;31.77;;
7375;SDS011;3728;42.266;24.944;2024-01-10T06:43:44;56.37;;;29.77;;
7375;SDS011;3728;42.266;24.944;2024-01-10T06:46:11;22.80;;;14.10;;
7375;SDS011;3728;42.266;24.944;2024-01-10T06:48:38;27.37;;;16.63;;
7375;SDS011;3728;42.266;24.944;2024-01-10T06:51:14;23.67;;;13.83;;
7375;SDS011;3728;42.266;24.944;2024-01-10T06:53:42;18.60;;;11.90;;
7375;SDS011;3728;42.266;24.944;2024-01-10T06:56:10;24.73;;;10.60;;
7375;SDS011;3728;42.266;24.944;2024-01-10T06:58:38;26.27;;;13.07;;
7375;SDS011;3728;42.266;24.944;2024-01-10T07:01:10;26.57;;;12.47;;
7375;SDS011;3728;42.266;24.944;2024-01-10T07:03:40;24.87;;;11.30;;
7375;SDS011;3728;42.266;24.944;2024-01-10T07:06:08;26.47;;;11.30;;
7375;SDS011;3728;42.266;24.944;2024-01-10T07:08:35;26.87;;;11.33;;
7375;SDS011;3728;42.266;24.944;2024-01-10T07:11:02;31.00;;;14.20;;
7375;SDS011;3728;42.266;24.944;2024-01-10T07:13:30;35.20;;;16.60;;
7375;SDS011;3728;42.266;24.944;2024-01-10T07:15:58;30.97;;;16.07;;
7375;SDS011;3728;42.266;24.944;2024-01-10T07:18:28;39.70;;;17.37;;
7375;SDS011;3728;42.266;24.944;2024-01-10T07:20:57;34.67;;;17.17;;
7375;SDS011;3728;42.266;24.944;2024-01-10T07:23:24;29.97;;;16.17;;
7375;SDS011;3728;42.266;24.944;2024-01-10T07:25:51;32.83;;;18.17;;
7375;SDS011;3728;42.266;24.944;2024-01-10T07:28:20;32.23;;;16.73;;
7375;SDS011;3728;42.266;24.944;2024-01-10T07:30:47;25.20;;;15.47;;
7375;SDS011;3728;42.266;24.944;2024-01-10T07:33:14;27.27;;;14.20;;
7375;SDS011;3728;42.266;24.944;2024-01-10T07:35:42;26.13;;;13.63;;
7375;SDS011;3728;42.266;24.944;2024-01-10T07:38:09;22.23;;;12.53;;
7375;SDS011;3728;42.266;24.944;2024-01-10T07:40:36;21.37;;;9.50;;
7375;SDS011;3728;42.266;24.944;2024-01-10T07:43:04;13.43;;;8.93;;
7375;SDS011;3728;42.266;24.944;2024-01-10T07:45:31;14.43;;;9.07;;
7375;SDS011;3728;42.266;24.944;2024-01-10T07:47:59;14.50;;;8.13;;
7375;SDS011;3728;42.266;24.944;2024-01-10T07:50:26;20.47;;;9.00;;
7375;SDS011;3728;42.266;24.944;2024-01-10T07:52:57;13.83;;;8.17;;
7375;SDS011;3728;42.266;24.944;2024-01-10T07:55:24;11.70;;;7.53;;
7375;SDS011;3728;42.266;24.944;2024-01-10T07:57:51;13.97;;;7.90;;
7375;SDS011;3728;42.266;24.944;2024-01-10T08:00:18;13.30;;;8.47;;
7375;SDS011;3728;42.266;24.944;2024-01-10T08:02:47;13.13;;;8.87;;
7375;SDS011;3728;42.266;24.944;2024-01-10T08:05:17;14.73;;;8.10;;
7375;SDS011;3728;42.266;24.944;2024-01-10T08:07:45;12.93;;;7.33;;
7375;SDS011;3728;42.266;24.944;2024-01-10T08:10:13;11.43;;;6.80;;
7375;SDS011;3728;42.266;24.944;2024-01-10T08:12:40;10.07;;;6.27;;
7375;SDS011;3728;42.266;24.944;2024-01-10T08:15:08;9.63;;;6.20;;
7375;SDS011;3728;42.266;24.944;2024-01-10T08:17:39;13.43;;;6.83;;
7375;SDS011;3728;42.266;24.944;2024-01-10T08:20:11;11.47;;;7.03;;
7375;SDS011;3728;42.266;24.944;2024-01-10T08:22:41;12.93;;;8.50;;
7375;SDS011;3728;42.266;24.944;2024-01-10T08:25:10;13.87;;;8.67;;
7375;SDS011;3728;42.266;24.944;2024-01-10T08:27:39;12.63;;;9.47;;
7375;SDS011;3728;42.266;24.944;2024-01-10T08:30:10;22.23;;;14.53;;
7375;SDS011;3728;42.266;24.944;2024-01-10T08:32:38;24.60;;;17.33;;
7375;SDS011;3728;42.266;24.944;2024-01-10T08:35:05;28.90;;;20.13;;
7375;SDS011;3728;42.266;24.944;2024-01-10T08:37:38;17.63;;;12.17;;
7375;SDS011;3728;42.266;24.944;2024-01-10T08:40:07;12.37;;;7.17;;
7375;SDS011;3728;42.266;24.944;2024-01-10T08:42:41;6.30;;;4.07;;
7375;SDS011;3728;42.266;24.944;2024-01-10T08:45:09;7.20;;;3.57;;
7375;SDS011;3728;42.266;24.944;2024-01-10T08:47:38;3.47;;;2.50;;
7375;SDS011;3728;42.266;24.944;2024-01-10T08:50:05;4.47;;;2.33;;
7375;SDS011;3728;42.266;24.944;2024-01-10T08:52:35;9.93;;;6.17;;
7375;SDS011;3728;42.266;24.944;2024-01-10T08:55:06;7.13;;;2.83;;
7375;SDS011;3728;42.266;24.944;2024-01-10T08:57:39;4.67;;;3.23;;
7375;SDS011;3728;42.266;24.944;2024-01-10T09:00:08;5.33;;;3.60;;
7375;SDS011;3728;42.266;24.944;2024-01-10T09:02:39;4.43;;;3.13;;
7375;SDS011;3728;42.266;24.944;2024-01-10T09:05:08;7.97;;;3.57;;
7375;SDS011;3728;42.266;24.944;2024-01-10T09:07:37;5.30;;;3.33;;
7375;SDS011;3728;42.266;24.944;2024-01-10T09:10:05;5.10;;;3.20;;
7375;SDS011;3728;42.266;24.944;2024-01-10T09:12:34;6.40;;;3.50;;
7375;SDS011;3728;42.266;24.944;2024-01-10T09:15:02;6.03;;;3.40;;
7375;SDS011;3728;42.266;24.944;2024-01-10T09:17:29;10.47;;;3.40;;
7375;SDS011;3728;42.266;24.944;2024-01-10T09:19:59;12.77;;;4.00;;
7375;SDS011;3728;42.266;24.944;2024-01-10T09:22:29;5.17;;;3.90;;
7375;SDS011;3728;42.266;24.944;2024-01-10T09:24:57;10.27;;;3.90;;
7375;SDS011;3728;42.266;24.944;2024-01-10T09:27:33;12.23;;;4.47;;
7375;SDS011;3728;42.266;24.944;2024-01-10T09:30:01;9.60;;;3.90;;
7375;SDS011;3728;42.266;24.944;2024-01-10T09:32:32;6.67;;;3.70;;
7375;SDS011;3728;42.266;24.944;2024-01-10T09:34:59;7.37;;;3.90;;
7375;SDS011;3728;42.266;24.944;2024-01-10T09:37:26;5.23;;;3.77;;
7375;SDS011;3728;42.266;24.944;2024-01-10T09:39:54;3.70;;;3.40;;
7375;SDS011;3728;42.266;24.944;2024-01-10T09:42:21;4.13;;;3.10;;
7375;SDS011;3728;42.266;24.944;2024-01-10T09:44:52;5.23;;;3.63;;
7375;SDS011;3728;42.266;24.944;2024-01-10T09:47:19;5.57;;;3.60;;
7375;SDS011;3728;42.266;24.944;2024-01-10T09:49:47;5.47;;;3.40;;
7375;SDS011;3728;42.266;24.944;2024-01-10T09:52:24;4.47;;;3.60;;
7375;SDS011;3728;42.266;24.944;2024-01-10T09:54:55;8.17;;;3.60;;
7375;SDS011;3728;42.266;24.944;2024-01-10T09:57:25;5.13;;;3.33;;
7375;SDS011;3728;42.266;24.944;2024-01-10T09:59:53;7.23;;;4.03;;
7375;SDS011;3728;42.266;24.944;2024-01-10T10:02:23;5.87;;;3.90;;
7375;SDS011;3728;42.266;24.944;2024-01-10T10:04:56;7.10;;;4.20;;
7375;SDS011;3728;42.266;24.944;2024-01-10T10:07:26;3.63;;;3.27;;
7375;SDS011;3728;42.266;24.944;2024-01-10T10:09:53;9.90;;;4.70;;
7375;SDS011;3728;42.266;24.944;2024-01-10T10:12:28;4.00;;;3.60;;
7375;SDS011;3728;42.266;24.944;2024-01-10T10:15:16;8.70;;;4.17;;
7375;SDS011;3728;42.266;24.944;2024-01-10T10:17:50;6.13;;;3.93;;
7375;SDS011;3728;42.266;24.944;2024-01-10T10:20:24;4.80;;;3.90;;
7375;SDS011;3728;42.266;24.944;2024-01-10T10:25:30;7.90;;;4.50;;
7375;SDS011;3728;42.266;24.944;2024-01-10T10:28:01;4.60;;;3.83;;
7375;SDS011;3728;42.266;24.944;2024-01-10T10:30:30;5.67;;;3.60;;
7375;SDS011;3728;42.266;24.944;2024-01-10T10:33:04;7.97;;;4.30;;
7375;SDS011;3728;42.266;24.944;2024-01-10T10:35:34;6.40;;;4.23;;
7375;SDS011;3728;42.266;24.944;2024-01-10T10:38:08;7.20;;;4.67;;
7375;SDS011;3728;42.266;24.944;2024-01-10T10:40:37;8.47;;;4.67;;
7375;SDS011;3728;42.266;24.944;2024-01-10T10:43:05;10.63;;;6.30;;
7375;SDS011;3728;42.266;24.944;2024-01-10T10:45:41;13.27;;;6.37;;
7375;SDS011;3728;42.266;24.944;2024-01-10T10:48:12;7.67;;;5.30;;
7375;SDS011;3728;42.266;24.944;2024-01-10T10:50:50;9.00;;;5.40;;
7375;SDS011;3728;42.266;24.944;2024-01-10T10:53:24;8.50;;;5.67;;
7375;SDS011;3728;42.266;24.944;2024-01-10T10:55:55;8.97;;;6.20;;
7375;SDS011;3728;42.266;24.944;2024-01-10T10:58:25;19.33;;;9.00;;
7375;SDS011;3728;42.266;24.944;2024-01-10T11:00:52;20.53;;;11.37;;
7375;SDS011;3728;42.266;24.944;2024-01-10T11:03:20;19.43;;;9.90;;
7375;SDS011;3728;42.266;24.944;2024-01-10T11:05:51;23.27;;;11.67;;
7375;SDS011;3728;42.266;24.944;2024-01-10T11:08:19;19.93;;;10.93;;
7375;SDS011;3728;42.266;24.944;2024-01-10T11:10:48;26.40;;;15.63;;
7375;SDS011;3728;42.266;24.944;2024-01-10T11:13:28;36.27;;;19.13;;
7375;SDS011;3728;42.266;24.944;2024-01-10T11:24:55;26.13;;;14.13;;
7375;SDS011;3728;42.266;24.944;2024-01-10T11:27:25;15.53;;;9.40;;
7375;SDS011;3728;42.266;24.944;2024-01-10T11:29:53;14.93;;;8.43;;
7375;SDS011;3728;42.266;24.944;2024-01-10T11:32:22;13.50;;;8.53;;
7375;SDS011;3728;42.266;24.944;2024-01-10T11:37:20;14.87;;;8.53;;
7375;SDS011;3728;42.266;24.944;2024-01-10T11:39:47;10.50;;;7.57;;
7375;SDS011;3728;42.266;24.944;2024-01-10T11:42:23;18.20;;;11.73;;
7375;SDS011;3728;42.266;24.944;2024-01-10T11:44:52;14.10;;;8.40;;
7375;SDS011;3728;42.266;24.944;2024-01-10T11:47:19;15.03;;;8.80;;
7375;SDS011;3728;42.266;24.944;2024-01-10T11:49:58;12.70;;;7.70;;
7375;SDS011;3728;42.266;24.944;2024-01-10T11:52:31;13.93;;;8.43;;
7375;SDS011;3728;42.266;24.944;2024-01-10T11:55:01;12.13;;;8.47;;
7375;SDS011;3728;42.266;24.944;2024-01-10T11:57:28;13.70;;;9.03;;
7375;SDS011;3728;42.266;24.944;2024-01-10T11:59:59;11.63;;;6.00;;
7375;SDS011;3728;42.266;24.944;2024-01-10T12:02:30;11.77;;;6.00;;
7375;SDS011;3728;42.266;24.944;2024-01-10T12:04:57;8.97;;;6.37;;
7375;SDS011;3728;42.266;24.944;2024-01-10T12:07:26;9.43;;;6.70;;
7375;SDS011;3728;42.266;24.944;2024-01-10T12:09:54;10.70;;;7.03;;
7375;SDS011;3728;42.266;24.944;2024-01-10T12:12:22;13.60;;;8.63;;
7375;SDS011;3728;42.266;24.944;2024-01-10T12:14:50;14.50;;;10.17;;
7375;SDS011;3728;42.266;24.944;2024-01-10T12:17:18;13.20;;;8.40;;
7375;SDS011;3728;42.266;24.944;2024-01-10T12:19:46;15.40;;;8.97;;
7375;SDS011;3728;42.266;24.944;2024-01-10T12:22:18;17.00;;;11.10;;
7375;SDS011;3728;42.266;24.944;2024-01-10T12:24:49;16.87;;;12.00;;
7375;SDS011;3728;42.266;24.944;2024-01-10T12:27:18;10.20;;;7.27;;
7375;SDS011;3728;42.266;24.944;2024-01-10T12:29:49;12.87;;;9.30;;
7375;SDS011;3728;42.266;24.944;2024-01-10T12:32:20;12.73;;;9.03;;
7375;SDS011;3728;42.266;24.944;2024-01-10T12:34:59;15.20;;;9.70;;
7375;SDS011;3728;42.266;24.944;2024-01-10T12:37:28;14.67;;;9.67;;
7375;SDS011;3728;42.266;24.944;2024-01-10T12:39:55;13.13;;;10.10;;
7375;SDS011;3728;42.266;24.944;2024-01-10T12:42:23;12.67;;;9.67;;
7375;SDS011;3728;42.266;24.944;2024-01-10T12:44:51;19.13;;;12.70;;
7375;SDS011;3728;42.266;24.944;2024-01-10T12:47:18;23.43;;;16.13;;
7375;SDS011;3728;42.266;24.944;2024-01-10T12:49:46;18.63;;;12.97;;
7375;SDS011;3728;42.266;24.944;2024-01-10T12:52:14;26.77;;;18.00;;
7375;SDS011;3728;42.266;24.944;2024-01-10T12:54:45;24.80;;;18.70;;
7375;SDS011;3728;42.266;24.944;2024-01-10T12:57:11;23.87;;;17.67;;
7375;SDS011;3728;42.266;24.944;2024-01-10T12:59:38;25.97;;;16.80;;
7375;SDS011;3728;42.266;24.944;2024-01-10T13:02:06;54.50;;;35.47;;
7375;SDS011;3728;42.266;24.944;2024-01-10T13:04:33;34.47;;;23.33;;
7375;SDS011;3728;42.266;24.944;2024-01-10T13:07:00;19.07;;;13.00;;
7375;SDS011;3728;42.266;24.944;2024-01-10T13:09:28;23.80;;;15.50;;
7375;SDS011;3728;42.266;24.944;2024-01-10T13:11:55;22.37;;;15.07;;
7375;SDS011;3728;42.266;24.944;2024-01-10T13:14:22;19.40;;;13.23;;
7375;SDS011;3728;42.266;24.944;2024-01-10T13:16:49;29.50;;;20.43;;
7375;SDS011;3728;42.266;24.944;2024-01-10T13:19:25;28.30;;;20.13;;
7375;SDS011;3728;42.266;24.944;2024-01-10T13:21:53;16.83;;;11.60;;
7375;SDS011;3728;42.266;24.944;2024-01-10T13:24:20;14.30;;;8.73;;
7375;SDS011;3728;42.266;24.944;2024-01-10T13:26:47;15.63;;;10.30;;
7375;SDS011;3728;42.266;24.944;2024-01-10T13:29:15;10.97;;;8.60;;
7375;SDS011;3728;42.266;24.944;2024-01-10T13:31:43;9.90;;;7.57;;
7375;SDS011;3728;42.266;24.944;2024-01-10T13:34:10;14.57;;;8.03;;
7375;SDS011;3728;42.266;24.944;2024-01-10T13:36:38;11.17;;;7.80;;
7375;SDS011;3728;42.266;24.944;2024-01-10T13:39:05;11.63;;;7.67;;
7375;SDS011;3728;42.266;24.944;2024-01-10T13:41:33;11.00;;;6.77;;
7375;SDS011;3728;42.266;24.944;2024-01-10T13:44:00;8.03;;;6.43;;
7375;SDS011;3728;42.266;24.944;2024-01-10T13:46:28;10.30;;;6.40;;
7375;SDS011;3728;42.266;24.944;2024-01-10T13:48:55;11.17;;;7.23;;
7375;SDS011;3728;42.266;24.944;2024-01-10T13:51:22;11.83;;;6.80;;
7375;SDS011;3728;42.266;24.944;2024-01-10T13:53:49;7.50;;;6.13;;
7375;SDS011;3728;42.266;24.944;2024-01-10T13:56:16;10.97;;;7.97;;
7375;SDS011;3728;42.266;24.944;2024-01-10T13:58:43;10.03;;;7.50;;
7375;SDS011;3728;42.266;24.944;2024-01-10T14:01:10;10.33;;;7.67;;
7375;SDS011;3728;42.266;24.944;2024-01-10T14:03:37;10.03;;;6.80;;
7375;SDS011;3728;42.266;24.944;2024-01-10T14:06:05;13.63;;;9.47;;
7375;SDS011;3728;42.266;24.944;2024-01-10T14:08:32;14.67;;;8.40;;
7375;SDS011;3728;42.266;24.944;2024-01-10T14:11:00;16.23;;;8.13;;
7375;SDS011;3728;42.266;24.944;2024-01-10T14:13:27;12.20;;;7.30;;
7375;SDS011;3728;42.266;24.944;2024-01-10T14:15:55;11.23;;;7.20;;
7375;SDS011;3728;42.266;24.944;2024-01-10T14:18:22;11.43;;;7.30;;
7375;SDS011;3728;42.266;24.944;2024-01-10T14:20:49;9.80;;;7.20;;
7375;SDS011;3728;42.266;24.944;2024-01-10T14:23:16;10.80;;;7.30;;
7375;SDS011;3728;42.266;24.944;2024-01-10T14:25:45;8.50;;;6.97;;
7375;SDS011;3728;42.266;24.944;2024-01-10T14:28:12;10.23;;;7.10;;
7375;SDS011;3728;42.266;24.944;2024-01-10T14:30:39;11.97;;;8.03;;
7375;SDS011;3728;42.266;24.944;2024-01-10T14:33:07;10.03;;;7.53;;
7375;SDS011;3728;42.266;24.944;2024-01-10T14:35:35;14.03;;;8.20;;
7375;SDS011;3728;42.266;24.944;2024-01-10T14:38:02;10.53;;;7.30;;
7375;SDS011;3728;42.266;24.944;2024-01-10T14:40:30;12.37;;;8.27;;
7375;SDS011;3728;42.266;24.944;2024-01-10T14:42:57;10.53;;;7.70;;
7375;SDS011;3728;42.266;24.944;2024-01-10T14:45:24;13.73;;;9.20;;
7375;SDS011;3728;42.266;24.944;2024-01-10T14:47:52;13.13;;;8.47;;
7375;SDS011;3728;42.266;24.944;2024-01-10T14:50:20;10.30;;;8.17;;
7375;SDS011;3728;42.266;24.944;2024-01-10T14:52:48;14.07;;;8.30;;
7375;SDS011;3728;42.266;24.944;2024-01-10T14:55:16;9.50;;;8.43;;
7375;SDS011;3728;42.266;24.944;2024-01-10T14:57:44;11.53;;;8.03;;
7375;SDS011;3728;42.266;24.944;2024-01-10T15:00:11;17.70;;;9.33;;
7375;SDS011;3728;42.266;24.944;2024-01-10T15:02:41;15.70;;;10.33;;
7375;SDS011;3728;42.266;24.944;2024-01-10T15:05:10;15.90;;;11.07;;